createdAt,value
2022-11-03T00:01:46.657Z,93.00
2022-11-03T00:04:16.402Z,92.30
2022-11-03T00:06:45.268Z,93.00
2022-11-03T00:09:14.824Z,92.90
2022-11-03T00:11:43.775Z,90.80
2022-11-03T00:14:12.295Z,92.00
2022-11-03T00:16:40.188Z,96.00
2022-11-03T00:19:08.751Z,94.60
2022-11-03T00:21:36.963Z,95.40
2022-11-03T00:24:05.086Z,96.10
2022-11-03T00:26:34.183Z,97.70
2022-11-03T00:29:06.438Z,97.00
2022-11-03T00:31:35.635Z,98.30
2022-11-03T00:34:03.586Z,99.40
2022-11-03T00:36:36.023Z,99.90
2022-11-03T00:39:04.905Z,99.30
2022-11-03T00:41:32.464Z,98.80
2022-11-03T00:44:00.276Z,99.90
2022-11-03T00:46:27.838Z,99.90
2022-11-03T00:48:55.080Z,99.90
2022-11-03T00:51:27.790Z,99.90
2022-11-03T00:54:00.147Z,99.90
2022-11-03T00:56:33.325Z,99.90
2022-11-03T00:59:01.818Z,99.90
2022-11-03T01:01:42.105Z,99.90
2022-11-03T01:04:29.037Z,99.90
2022-11-03T01:06:58.799Z,99.90
2022-11-03T01:09:33.984Z,99.90
2022-11-03T01:12:02.859Z,99.90
2022-11-03T01:14:34.061Z,99.90
2022-11-03T01:17:02.329Z,99.90
2022-11-03T01:19:29.591Z,99.90
2022-11-03T01:21:56.818Z,99.90
2022-11-03T01:24:24.178Z,99.90
2022-11-03T01:26:51.797Z,99.90
2022-11-03T01:29:19.196Z,99.90
2022-11-03T01:31:46.500Z,99.90
2022-11-03T01:34:18.608Z,99.90
2022-11-03T01:36:46.636Z,99.90
2022-11-03T01:39:16.063Z,99.90
2022-11-03T01:41:45.463Z,99.90
2022-11-03T01:44:12.616Z,99.90
2022-11-03T01:47:03.924Z,99.90
2022-11-03T01:49:41.279Z,99.90
2022-11-03T01:52:26.592Z,99.90
2022-11-03T01:55:04.646Z,99.90
2022-11-03T01:57:39.996Z,99.90
2022-11-03T02:00:08.310Z,99.90
2022-11-03T02:02:35.913Z,99.90
2022-11-03T02:05:05.282Z,99.90
2022-11-03T02:07:58.774Z,99.90
2022-11-03T02:10:26.238Z,99.90
2022-11-03T02:12:53.964Z,99.90
2022-11-03T02:15:22.335Z,99.90
2022-11-03T02:17:52.076Z,99.90
2022-11-03T02:20:29.645Z,99.90
2022-11-03T02:23:26.652Z,99.90
2022-11-03T02:25:56.754Z,99.90
2022-11-03T02:28:29.439Z,99.90
2022-11-03T02:31:32.650Z,99.90
2022-11-03T02:34:38.377Z,99.90
2022-11-03T02:37:28.948Z,99.90
2022-11-03T02:40:19.075Z,99.90
2022-11-03T02:42:51.026Z,99.90
2022-11-03T02:45:21.358Z,99.90
2022-11-03T02:47:50.894Z,99.90
2022-11-03T02:50:20.168Z,99.90
2022-11-03T02:52:48.631Z,99.90
2022-11-03T02:55:29.122Z,99.90
2022-11-03T02:58:11.500Z,99.90
2022-11-03T03:00:52.210Z,99.90
2022-11-03T03:03:37.964Z,99.90
2022-11-03T03:06:11.210Z,99.90
2022-11-03T03:08:43.689Z,99.90
2022-11-03T03:11:13.469Z,99.90
2022-11-03T03:13:42.526Z,99.90
2022-11-03T03:16:16.823Z,99.90
2022-11-03T03:18:58.037Z,99.90
2022-11-03T03:21:34.993Z,99.90
2022-11-03T03:24:16.288Z,99.90
2022-11-03T03:26:49.702Z,99.90
2022-11-03T03:29:26.633Z,99.90
2022-11-03T03:32:03.829Z,99.90
2022-11-03T03:34:35.937Z,99.90
2022-11-03T03:37:06.636Z,99.90
2022-11-03T03:39:37.748Z,99.90
2022-11-03T03:42:08.085Z,99.90
2022-11-03T03:44:37.098Z,99.90
2022-11-03T03:47:27.313Z,99.90
2022-11-03T03:49:55.703Z,99.90
2022-11-03T03:52:23.879Z,99.90
2022-11-03T03:54:51.688Z,99.90
2022-11-03T03:57:22.378Z,99.90
2022-11-03T03:59:49.725Z,99.90
2022-11-03T04:02:17.256Z,99.90
2022-11-03T04:04:44.641Z,99.90
2022-11-03T04:07:30.640Z,99.90
2022-11-03T04:09:57.836Z,99.90
2022-11-03T04:12:43.701Z,99.90
2022-11-03T04:15:32.852Z,99.90
2022-11-03T04:18:18.497Z,99.90
2022-11-03T04:21:04.636Z,99.90
2022-11-03T04:23:31.994Z,99.90
2022-11-03T04:25:59.745Z,95.40
2022-11-03T04:28:27.441Z,94.90
2022-11-03T04:30:59.747Z,94.70
2022-11-03T04:33:29.119Z,94.20
2022-11-03T04:35:59.497Z,84.70
2022-11-03T04:38:29.459Z,79.50
2022-11-03T04:40:58.924Z,75.60
2022-11-03T04:43:37.471Z,71.80
2022-11-03T04:46:06.153Z,69.80
2022-11-03T04:48:34.320Z,67.70
2022-11-03T04:51:06.051Z,68.10
2022-11-03T04:53:33.667Z,64.50
2022-11-03T04:56:06.179Z,59.40
2022-11-03T04:58:36.258Z,59.30
2022-11-03T05:01:04.755Z,54.10
2022-11-03T05:03:36.239Z,72.10
2022-11-03T05:06:12.844Z,47.10
2022-11-03T05:08:40.782Z,46.70
2022-11-03T05:11:31.207Z,43.30
2022-11-03T05:14:18.810Z,37.90
2022-11-03T05:16:47.471Z,38.40
2022-11-03T05:19:57.138Z,37.50
2022-11-03T05:22:29.397Z,37.50
2022-11-03T05:25:01.321Z,39.90
2022-11-03T05:27:28.708Z,41.80
2022-11-03T05:30:00.829Z,39.40
2022-11-03T05:32:33.144Z,39.10
2022-11-03T05:35:01.291Z,39.10
2022-11-03T05:37:29.729Z,40.60
2022-11-03T05:40:15.181Z,41.40
2022-11-03T05:42:45.351Z,38.70
2022-11-03T05:45:26.883Z,38.60
2022-11-03T05:47:57.145Z,44.00
2022-11-03T05:50:35.057Z,49.60
2022-11-03T05:53:23.206Z,40.20
2022-11-03T05:55:50.476Z,42.00
2022-11-03T05:58:26.838Z,38.40
2022-11-03T06:00:57.668Z,42.90
2022-11-03T06:03:30.116Z,42.80
2022-11-03T06:05:58.772Z,43.10
2022-11-03T06:08:30.761Z,45.80
2022-11-03T06:10:59.766Z,47.20
2022-11-03T06:13:39.976Z,45.20
2022-11-03T06:16:41.930Z,46.00
2022-11-03T06:19:15.986Z,45.10
2022-11-03T06:21:44.827Z,38.40
2022-11-03T06:24:14.154Z,37.60
2022-11-03T06:26:43.195Z,39.20
2022-11-03T06:29:18.820Z,40.90
2022-11-03T06:31:49.863Z,39.30
2022-11-03T06:34:37.225Z,39.10
2022-11-03T06:37:34.275Z,35.10
2022-11-03T06:40:11.217Z,32.30
2022-11-03T06:42:40.077Z,36.10
2022-11-03T06:45:20.382Z,37.50
2022-11-03T06:47:48.203Z,39.30
2022-11-03T06:50:32.670Z,37.90
2022-11-03T06:53:06.675Z,39.50
2022-11-03T06:55:35.812Z,39.90
2022-11-03T06:58:26.559Z,41.00
2022-11-03T07:01:02.627Z,42.60
2022-11-03T07:03:35.413Z,44.10
2022-11-03T07:06:17.896Z,46.90
2022-11-03T07:08:48.387Z,46.10
2022-11-03T07:11:22.758Z,49.80
2022-11-03T07:13:58.561Z,50.00
2022-11-03T07:16:33.571Z,48.20
2022-11-03T07:19:04.021Z,48.40
2022-11-03T07:21:49.410Z,48.60
2022-11-03T07:24:25.748Z,48.60
2022-11-03T07:27:11.247Z,58.60
2022-11-03T07:29:38.567Z,65.60
2022-11-03T07:32:13.937Z,63.70
2022-11-03T07:34:41.358Z,93.70
2022-11-03T07:37:16.033Z,79.10
2022-11-03T07:39:43.283Z,92.20
2022-11-03T07:42:19.993Z,71.10
2022-11-03T07:44:48.402Z,76.10
2022-11-03T07:47:26.828Z,77.40
2022-11-03T07:49:56.175Z,83.50
2022-11-03T07:52:25.887Z,80.50
2022-11-03T07:54:57.350Z,83.90
2022-11-03T07:57:32.203Z,81.20
2022-11-03T08:00:10.866Z,81.40
2022-11-03T08:02:51.006Z,81.90
2022-11-03T08:07:50.488Z,79.90
2022-11-03T08:10:17.753Z,77.60
2022-11-03T08:12:45.036Z,78.30
2022-11-03T08:15:12.200Z,71.80
2022-11-03T08:17:39.400Z,68.90
2022-11-03T08:20:07.196Z,67.50
2022-11-03T08:22:34.415Z,60.80
2022-11-03T08:25:01.669Z,58.90
2022-11-03T08:27:28.928Z,58.80
2022-11-03T08:29:56.143Z,59.60
2022-11-03T08:32:23.356Z,61.00
2022-11-03T08:34:53.379Z,56.40
2022-11-03T08:37:20.619Z,60.70
2022-11-03T08:39:47.892Z,61.80
2022-11-03T08:42:15.104Z,60.60
2022-11-03T08:44:42.578Z,53.30
2022-11-03T08:47:09.797Z,55.50
2022-11-03T08:49:37.057Z,53.90
2022-11-03T08:52:04.351Z,55.50
2022-11-03T08:54:31.577Z,68.00
2022-11-03T08:56:58.795Z,66.00
2022-11-03T08:59:26.174Z,66.30
2022-11-03T09:01:53.576Z,65.50
2022-11-03T09:04:21.251Z,63.60
2022-11-03T09:06:48.480Z,63.70
2022-11-03T09:12:03.559Z,55.90
2022-11-03T09:14:30.796Z,50.50
2022-11-03T09:16:58.146Z,49.90
2022-11-03T09:19:25.459Z,49.70
2022-11-03T09:21:53.018Z,51.00
2022-11-03T09:24:20.231Z,47.10
2022-11-03T09:26:47.458Z,41.10
2022-11-03T09:29:14.676Z,40.80
2022-11-03T09:31:42.044Z,34.60
2022-11-03T09:34:09.229Z,33.90
2022-11-03T09:36:36.439Z,33.10
2022-11-03T09:39:03.934Z,27.90
2022-11-03T09:41:53.711Z,28.20
2022-11-03T09:44:20.376Z,27.10
2022-11-03T09:46:48.241Z,29.20
2022-11-03T09:49:16.331Z,33.90
2022-11-03T09:51:43.805Z,33.50
2022-11-03T09:54:13.946Z,36.60
2022-11-03T09:56:41.947Z,39.50
2022-11-03T09:59:23.739Z,38.90
2022-11-03T10:01:53.609Z,35.20
2022-11-03T10:04:27.027Z,36.30
2022-11-03T10:06:58.671Z,33.50
2022-11-03T10:09:28.551Z,28.90
2022-11-03T10:11:56.125Z,28.60
2022-11-03T10:14:24.235Z,28.60
2022-11-03T10:16:57.112Z,29.00
2022-11-03T10:19:25.672Z,29.80
2022-11-03T10:21:53.141Z,28.80
2022-11-03T10:24:20.382Z,31.20
2022-11-03T10:26:52.800Z,33.50
2022-11-03T10:29:22.918Z,35.00
2022-11-03T10:31:53.475Z,37.10
2022-11-03T10:34:39.484Z,39.60
2022-11-03T10:37:22.678Z,34.20
2022-11-03T10:39:51.765Z,32.20
2022-11-03T10:42:20.704Z,36.50
2022-11-03T10:44:50.837Z,33.10
2022-11-03T10:47:34.822Z,32.80
2022-11-03T10:50:22.498Z,33.10
2022-11-03T10:52:50.663Z,34.50
2022-11-03T10:55:23.774Z,35.00
2022-11-03T10:57:55.825Z,35.60
2022-11-03T11:00:24.417Z,36.80
2022-11-03T11:02:56.873Z,36.40
2022-11-03T11:05:24.998Z,37.70
2022-11-03T11:07:54.298Z,34.90
2022-11-03T11:10:26.912Z,34.80
2022-11-03T11:13:15.618Z,31.10
2022-11-03T11:15:45.132Z,30.80
2022-11-03T11:18:32.260Z,29.40
2022-11-03T11:21:15.609Z,29.90
2022-11-03T11:23:44.753Z,29.60
2022-11-03T11:26:17.653Z,28.20
2022-11-03T11:29:14.069Z,26.30
2022-11-03T11:31:45.208Z,27.80
2022-11-03T11:34:21.387Z,29.00
2022-11-03T11:36:57.792Z,26.20
2022-11-03T11:39:27.867Z,24.80
2022-11-03T11:42:13.788Z,25.60
2022-11-03T11:44:41.155Z,26.20
2022-11-03T11:47:27.050Z,27.10
2022-11-03T11:50:23.711Z,28.70
2022-11-03T11:52:57.882Z,28.30
2022-11-03T11:55:25.096Z,29.80
2022-11-03T11:57:53.594Z,28.50
2022-11-03T12:00:25.863Z,27.40
2022-11-03T12:02:54.176Z,26.80
2022-11-03T12:05:27.975Z,27.70
2022-11-03T12:07:56.000Z,27.20
2022-11-03T12:10:31.456Z,26.60
2022-11-03T12:13:00.142Z,27.20
2022-11-03T12:15:56.002Z,30.60
2022-11-03T12:18:49.309Z,26.10
2022-11-03T12:21:46.731Z,29.20
2022-11-03T12:24:32.375Z,27.50
2022-11-03T12:27:00.724Z,27.50
2022-11-03T12:29:28.224Z,26.90
2022-11-03T12:31:55.877Z,24.50
2022-11-03T12:34:23.106Z,24.20
2022-11-03T12:36:55.774Z,25.00
2022-11-03T12:39:23.532Z,24.50
2022-11-03T12:41:50.757Z,24.80
2022-11-03T12:44:17.979Z,24.10
2022-11-03T12:46:45.196Z,24.80
2022-11-03T12:49:12.396Z,23.30
2022-11-03T12:51:39.643Z,23.10
2022-11-03T12:54:06.815Z,22.00
2022-11-03T12:56:34.142Z,21.80
2022-11-03T12:59:01.687Z,21.40
2022-11-03T13:01:30.184Z,20.70
2022-11-03T13:03:57.768Z,20.40
2022-11-03T13:06:25.018Z,21.00
2022-11-03T13:08:53.334Z,20.60
2022-11-03T13:11:39.345Z,21.90
2022-11-03T13:14:06.589Z,20.70
2022-11-03T13:16:33.841Z,20.90
2022-11-03T13:19:01.066Z,20.40
2022-11-03T13:21:28.421Z,20.60
2022-11-03T13:23:56.486Z,20.60
2022-11-03T13:26:23.847Z,21.30
2022-11-03T13:28:51.155Z,21.20
2022-11-03T13:31:18.348Z,23.20
2022-11-03T13:33:45.690Z,22.20
2022-11-03T13:36:12.992Z,22.50
2022-11-03T13:38:40.387Z,23.40
2022-11-03T13:41:09.204Z,25.40
2022-11-03T13:43:37.280Z,26.10
2022-11-03T13:46:05.287Z,26.10
2022-11-03T13:51:21.515Z,25.40
2022-11-03T14:07:08.257Z,27.00
2022-11-03T14:12:26.420Z,27.40
2022-11-03T14:14:53.599Z,25.90
2022-11-03T14:17:20.843Z,26.50
2022-11-03T14:19:52.419Z,28.30
2022-11-03T14:22:21.786Z,27.90
2022-11-03T14:24:49.105Z,27.60
2022-11-03T14:27:17.253Z,26.30
2022-11-03T14:29:45.237Z,26.80
2022-11-03T14:32:12.620Z,29.00
2022-11-03T14:34:39.856Z,27.80
2022-11-03T14:37:08.902Z,28.40
2022-11-03T14:39:36.882Z,28.60
2022-11-03T14:42:05.738Z,31.70
2022-11-03T14:44:34.812Z,34.50
2022-11-03T14:47:03.537Z,35.40
2022-11-03T14:49:32.008Z,35.10
2022-11-03T14:52:01.606Z,35.50
2022-11-03T14:54:30.571Z,35.60
2022-11-03T14:56:57.992Z,35.20
2022-11-03T14:59:26.146Z,34.70
2022-11-03T15:01:53.973Z,35.80
2022-11-03T15:04:21.776Z,35.10
2022-11-03T15:06:49.209Z,32.90
2022-11-03T15:09:16.734Z,35.00
2022-11-03T15:11:44.480Z,36.00
2022-11-03T15:14:12.340Z,36.00
2022-11-03T15:16:40.372Z,38.10
2022-11-03T15:19:08.845Z,37.50
2022-11-03T15:21:36.107Z,39.30
2022-11-03T15:26:50.875Z,40.90
2022-11-03T15:29:18.153Z,40.70
2022-11-03T15:31:48.174Z,40.10
2022-11-03T15:34:16.451Z,39.60
2022-11-03T15:36:43.870Z,39.60
2022-11-03T15:39:11.049Z,39.00
2022-11-03T15:41:38.265Z,39.90
2022-11-03T15:44:05.535Z,40.10
2022-11-03T15:46:32.773Z,41.50
2022-11-03T15:49:00.682Z,40.90
2022-11-03T15:51:28.007Z,41.50
2022-11-03T15:53:58.563Z,42.90
2022-11-03T15:56:30.004Z,42.30
2022-11-03T15:58:57.521Z,43.20
2022-11-03T16:01:24.945Z,42.40
2022-11-03T16:03:52.571Z,41.50
2022-11-03T16:06:27.031Z,45.90
2022-11-03T16:09:07.874Z,44.30
2022-11-03T16:11:35.078Z,42.80
2022-11-03T16:14:02.320Z,43.70
2022-11-03T16:16:29.488Z,44.10
2022-11-03T16:18:56.735Z,50.90
2022-11-03T16:21:24.066Z,55.50
2022-11-03T16:23:51.270Z,58.60
2022-11-03T16:26:21.941Z,63.20
2022-11-03T16:28:49.115Z,69.20
2022-11-03T16:31:16.785Z,71.20
2022-11-03T16:33:44.431Z,73.00
2022-11-03T16:36:11.686Z,72.20
2022-11-03T16:38:38.874Z,72.80
2022-11-03T16:41:06.141Z,71.90
2022-11-03T16:43:33.290Z,73.20
2022-11-03T16:46:00.691Z,72.10
2022-11-03T16:48:28.052Z,70.70
2022-11-03T16:50:56.689Z,67.80
2022-11-03T16:53:24.766Z,68.30
2022-11-03T16:55:52.652Z,64.60
2022-11-03T16:58:20.142Z,65.00
2022-11-03T17:00:47.693Z,67.50
2022-11-03T17:03:14.973Z,66.30
2022-11-03T17:05:42.379Z,69.90
2022-11-03T17:08:25.875Z,72.60
2022-11-03T17:10:57.038Z,75.80
2022-11-03T17:13:24.395Z,77.10
2022-11-03T17:15:51.626Z,81.00
2022-11-03T17:18:18.867Z,84.00
2022-11-03T17:20:46.990Z,83.50
2022-11-03T17:23:14.295Z,86.00
2022-11-03T17:25:41.558Z,85.50
2022-11-03T17:28:11.287Z,84.10
2022-11-03T17:30:39.591Z,85.70
2022-11-03T17:33:09.504Z,85.20
2022-11-03T17:35:42.489Z,79.70
2022-11-03T17:38:17.768Z,77.10
2022-11-03T17:40:47.347Z,74.10
2022-11-03T17:43:27.058Z,74.20
2022-11-03T17:45:54.686Z,74.30
2022-11-03T17:48:24.718Z,75.90
2022-11-03T17:50:55.420Z,77.90
2022-11-03T17:53:26.402Z,80.40
2022-11-03T17:56:23.598Z,85.10
2022-11-03T17:58:46.481Z,85.60
2022-11-03T18:01:23.764Z,90.00
2022-11-03T18:03:52.210Z,91.50
2022-11-03T18:06:21.255Z,92.90
2022-11-03T18:08:49.557Z,95.00
2022-11-03T18:11:42.920Z,97.90
2022-11-03T18:14:10.100Z,99.80
2022-11-03T18:16:37.587Z,99.90
2022-11-03T18:19:04.949Z,99.90
2022-11-03T18:21:32.230Z,99.70
2022-11-03T18:23:59.467Z,97.80
2022-11-03T18:26:27.480Z,98.30
2022-11-03T18:28:54.903Z,98.20
2022-11-03T18:31:34.064Z,97.40
2022-11-03T18:34:10.316Z,96.40
2022-11-03T18:36:37.778Z,95.80
2022-11-03T18:39:05.386Z,93.80
2022-11-03T18:41:41.639Z,92.80
2022-11-03T18:44:21.689Z,93.00
2022-11-03T18:46:51.312Z,93.40
2022-11-03T18:49:19.433Z,94.20
2022-11-03T18:52:17.016Z,95.20
2022-11-03T18:54:52.269Z,99.90
2022-11-03T18:57:23.497Z,98.40
2022-11-03T18:59:51.193Z,99.90
2022-11-03T19:02:26.444Z,99.90
2022-11-03T19:04:54.384Z,99.90
2022-11-03T19:07:27.610Z,99.90
2022-11-03T19:09:54.849Z,99.90
2022-11-03T19:12:22.499Z,99.90
2022-11-03T19:14:50.398Z,99.90
2022-11-03T19:17:23.504Z,99.90
2022-11-03T19:19:53.021Z,99.90
2022-11-03T19:22:22.629Z,99.90
2022-11-03T19:24:50.191Z,99.90
2022-11-03T19:27:25.584Z,99.90
2022-11-03T19:29:53.515Z,99.90
2022-11-03T19:32:30.162Z,99.90
2022-11-03T19:35:14.291Z,99.90
2022-11-03T19:37:41.801Z,99.90
2022-11-03T19:40:13.327Z,99.90
2022-11-03T19:42:40.570Z,99.90
2022-11-03T19:45:16.919Z,99.90
2022-11-03T19:48:23.048Z,99.90
2022-11-03T19:50:45.585Z,99.90
2022-11-03T19:53:20.121Z,99.90
2022-11-03T19:55:48.181Z,99.90
2022-11-03T19:58:22.324Z,99.90
2022-11-03T20:00:50.655Z,99.90
2022-11-03T20:03:18.200Z,99.90
2022-11-03T20:05:49.500Z,99.90
2022-11-03T20:08:23.205Z,99.90
2022-11-03T20:10:50.839Z,99.90
2022-11-03T20:13:28.823Z,99.90
2022-11-03T20:16:00.737Z,99.90
2022-11-03T20:18:28.838Z,99.90
2022-11-03T20:20:56.565Z,99.90
2022-11-03T20:23:28.459Z,99.90
2022-11-03T20:25:56.108Z,99.90
2022-11-03T20:28:28.615Z,99.90
2022-11-03T20:30:57.477Z,99.90
2022-11-03T20:33:25.675Z,99.90
2022-11-03T20:35:54.594Z,99.90
2022-11-03T20:38:24.936Z,99.90
2022-11-03T20:40:58.766Z,99.90
2022-11-03T20:43:37.660Z,99.90
2022-11-03T20:46:22.028Z,99.90
2022-11-03T20:48:49.871Z,99.90
2022-11-03T20:51:19.129Z,99.90
2022-11-03T20:53:47.845Z,99.90
2022-11-03T20:56:24.523Z,99.90
2022-11-03T20:58:52.214Z,99.90
2022-11-03T21:01:33.290Z,99.90
2022-11-03T21:04:01.842Z,99.90
2022-11-03T21:06:31.412Z,99.90
2022-11-03T21:08:59.281Z,99.90
2022-11-03T21:11:29.859Z,99.90
2022-11-03T21:13:58.253Z,99.90
2022-11-03T21:16:46.291Z,99.90
2022-11-03T21:19:43.733Z,99.90
2022-11-03T21:22:51.420Z,99.90
2022-11-03T21:25:04.952Z,99.90
2022-11-03T21:27:32.240Z,99.90
2022-11-03T21:30:00.196Z,99.90
2022-11-03T21:32:27.751Z,99.90
2022-11-03T21:34:55.049Z,99.90
2022-11-03T21:37:22.282Z,99.90
2022-11-03T21:39:49.520Z,99.90
2022-11-03T21:42:35.583Z,99.90
2022-11-03T21:45:03.049Z,99.90
2022-11-03T21:47:30.332Z,99.90
2022-11-03T21:49:57.534Z,99.90
2022-11-03T21:52:33.654Z,99.90
2022-11-03T21:55:02.669Z,99.90
2022-11-03T21:57:30.136Z,99.90
2022-11-03T22:00:00.783Z,99.90
2022-11-03T22:02:30.173Z,99.90
2022-11-03T22:04:58.149Z,99.90
2022-11-03T22:07:25.478Z,99.90
2022-11-03T22:09:52.776Z,99.90
2022-11-03T22:12:20.008Z,99.90
2022-11-03T22:15:05.813Z,99.90
2022-11-03T22:17:33.120Z,99.90
2022-11-03T22:20:18.689Z,99.90
2022-11-03T22:23:04.666Z,99.90
2022-11-03T22:25:50.512Z,99.90
2022-11-03T22:28:18.051Z,99.90
2022-11-03T22:31:03.852Z,99.90
2022-11-03T22:33:31.128Z,99.90
2022-11-03T22:36:21.569Z,99.90
2022-11-03T22:39:07.907Z,99.90
2022-11-03T22:41:53.862Z,99.90
2022-11-03T22:44:39.768Z,99.90
2022-11-03T22:47:08.504Z,99.90
2022-11-03T22:49:36.165Z,99.90
2022-11-03T22:52:04.280Z,99.90
2022-11-03T22:54:31.556Z,99.90
2022-11-03T22:56:58.796Z,99.90
2022-11-03T22:59:26.025Z,99.90
2022-11-03T23:01:54.131Z,99.90
2022-11-03T23:04:21.520Z,99.90
2022-11-03T23:06:48.712Z,99.90
2022-11-03T23:09:15.990Z,99.90
2022-11-03T23:11:43.235Z,99.90
2022-11-03T23:14:11.805Z,99.90
2022-11-03T23:16:44.415Z,99.90
2022-11-03T23:19:32.566Z,99.90
2022-11-03T23:22:00.470Z,99.90
2022-11-03T23:24:46.485Z,99.90
2022-11-03T23:27:14.258Z,99.90
2022-11-03T23:29:41.469Z,99.90
2022-11-03T23:32:08.982Z,99.90
2022-11-03T23:34:36.268Z,99.90
2022-11-03T23:37:03.747Z,99.90
2022-11-03T23:39:30.999Z,99.90
2022-11-03T23:41:58.173Z,99.90
2022-11-03T23:44:25.474Z,99.90
2022-11-03T23:47:11.383Z,99.90
2022-11-03T23:49:38.588Z,99.90
2022-11-03T23:52:05.761Z,99.90
2022-11-03T23:54:32.984Z,99.90
2022-11-03T23:57:18.783Z,99.90
